sensor_id;sensor_type;location;lat;lon;timestamp;P1;durP1;ratioP1;P2;durP2;ratioP2
73158;SDS011;61370;48.594;10.202;2022-08-30T00:00:23;10.98;;;8.00;;
73158;SDS011;61370;48.594;10.202;2022-08-30T00:03:09;11.63;;;7.57;;
73158;SDS011;61370;48.594;10.202;2022-08-30T00:05:37;10.40;;;7.20;;
73158;SDS011;61370;48.594;10.202;2022-08-30T00:08:04;11.40;;;7.82;;
73158;SDS011;61370;48.594;10.202;2022-08-30T00:10:31;9.90;;;7.18;;
73158;SDS011;61370;48.594;10.202;2022-08-30T00:12:58;12.60;;;7.28;;
73158;SDS011;61370;48.594;10.202;2022-08-30T00:15:25;12.88;;;7.43;;
73158;SDS011;61370;48.594;10.202;2022-08-30T00:17:52;12.25;;;7.60;;
73158;SDS011;61370;48.594;10.202;2022-08-30T00:20:21;12.13;;;7.88;;
73158;SDS011;61370;48.594;10.202;2022-08-30T00:22:49;12.75;;;8.40;;
73158;SDS011;61370;48.594;10.202;2022-08-30T00:25:16;11.45;;;7.82;;
73158;SDS011;61370;48.594;10.202;2022-08-30T00:27:44;15.27;;;7.70;;
73158;SDS011;61370;48.594;10.202;2022-08-30T00:30:11;12.88;;;7.82;;
73158;SDS011;61370;48.594;10.202;2022-08-30T00:32:39;10.70;;;7.20;;
73158;SDS011;61370;48.594;10.202;2022-08-30T00:35:07;10.70;;;8.00;;
73158;SDS011;61370;48.594;10.202;2022-08-30T00:37:34;11.23;;;7.55;;
73158;SDS011;61370;48.594;10.202;2022-08-30T00:40:02;11.68;;;7.82;;
73158;SDS011;61370;48.594;10.202;2022-08-30T00:42:30;12.27;;;8.75;;
73158;SDS011;61370;48.594;10.202;2022-08-30T00:44:58;13.55;;;8.98;;
73158;SDS011;61370;48.594;10.202;2022-08-30T00:47:25;15.27;;;8.23;;
73158;SDS011;61370;48.594;10.202;2022-08-30T00:49:52;13.60;;;8.10;;
73158;SDS011;61370;48.594;10.202;2022-08-30T00:52:20;10.57;;;7.30;;
73158;SDS011;61370;48.594;10.202;2022-08-30T00:54:47;15.20;;;7.97;;
73158;SDS011;61370;48.594;10.202;2022-08-30T00:57:14;11.68;;;8.50;;
73158;SDS011;61370;48.594;10.202;2022-08-30T00:59:42;11.55;;;7.93;;
73158;SDS011;61370;48.594;10.202;2022-08-30T01:04:37;11.13;;;7.43;;
73158;SDS011;61370;48.594;10.202;2022-08-30T01:07:05;11.40;;;7.68;;
73158;SDS011;61370;48.594;10.202;2022-08-30T01:09:34;10.55;;;7.25;;
73158;SDS011;61370;48.594;10.202;2022-08-30T01:12:01;12.32;;;7.57;;
73158;SDS011;61370;48.594;10.202;2022-08-30T01:14:28;15.90;;;8.02;;
73158;SDS011;61370;48.594;10.202;2022-08-30T01:16:58;10.55;;;6.90;;
73158;SDS011;61370;48.594;10.202;2022-08-30T01:19:45;11.23;;;7.68;;
73158;SDS011;61370;48.594;10.202;2022-08-30T01:25:02;11.75;;;7.85;;
73158;SDS011;61370;48.594;10.202;2022-08-30T01:27:30;12.93;;;7.28;;
73158;SDS011;61370;48.594;10.202;2022-08-30T01:29:57;11.10;;;7.68;;
73158;SDS011;61370;48.594;10.202;2022-08-30T01:32:25;13.00;;;7.60;;
73158;SDS011;61370;48.594;10.202;2022-08-30T01:34:54;11.70;;;7.10;;
73158;SDS011;61370;48.594;10.202;2022-08-30T01:37:32;12.43;;;7.50;;
73158;SDS011;61370;48.594;10.202;2022-08-30T01:39:59;12.45;;;7.90;;
73158;SDS011;61370;48.594;10.202;2022-08-30T01:42:25;12.65;;;7.57;;
73158;SDS011;61370;48.594;10.202;2022-08-30T01:44:53;11.10;;;7.43;;
73158;SDS011;61370;48.594;10.202;2022-08-30T01:47:19;10.30;;;7.28;;
73158;SDS011;61370;48.594;10.202;2022-08-30T01:49:46;11.38;;;7.18;;
73158;SDS011;61370;48.594;10.202;2022-08-30T01:52:13;12.10;;;7.68;;
73158;SDS011;61370;48.594;10.202;2022-08-30T01:54:42;10.65;;;7.85;;
73158;SDS011;61370;48.594;10.202;2022-08-30T01:57:10;12.20;;;8.02;;
73158;SDS011;61370;48.594;10.202;2022-08-30T01:59:39;13.38;;;7.75;;
73158;SDS011;61370;48.594;10.202;2022-08-30T02:02:08;12.93;;;7.40;;
73158;SDS011;61370;48.594;10.202;2022-08-30T02:04:35;14.93;;;7.90;;
73158;SDS011;61370;48.594;10.202;2022-08-30T02:07:02;10.60;;;7.80;;
73158;SDS011;61370;48.594;10.202;2022-08-30T02:09:30;11.80;;;7.82;;
73158;SDS011;61370;48.594;10.202;2022-08-30T02:11:56;10.75;;;7.80;;
73158;SDS011;61370;48.594;10.202;2022-08-30T02:14:23;11.82;;;7.47;;
73158;SDS011;61370;48.594;10.202;2022-08-30T02:16:50;9.32;;;7.10;;
73158;SDS011;61370;48.594;10.202;2022-08-30T02:19:16;10.95;;;7.40;;
73158;SDS011;61370;48.594;10.202;2022-08-30T02:21:43;11.10;;;7.60;;
73158;SDS011;61370;48.594;10.202;2022-08-30T02:24:09;21.48;;;7.75;;
73158;SDS011;61370;48.594;10.202;2022-08-30T02:26:36;12.00;;;8.32;;
73158;SDS011;61370;48.594;10.202;2022-08-30T02:29:03;10.43;;;7.70;;
73158;SDS011;61370;48.594;10.202;2022-08-30T02:31:31;10.57;;;7.68;;
73158;SDS011;61370;48.594;10.202;2022-08-30T02:33:57;11.63;;;7.80;;
73158;SDS011;61370;48.594;10.202;2022-08-30T02:36:24;11.18;;;7.60;;
73158;SDS011;61370;48.594;10.202;2022-08-30T02:38:50;10.80;;;7.72;;
73158;SDS011;61370;48.594;10.202;2022-08-30T02:41:17;13.93;;;8.05;;
73158;SDS011;61370;48.594;10.202;2022-08-30T02:43:45;13.98;;;7.50;;
73158;SDS011;61370;48.594;10.202;2022-08-30T02:46:12;12.85;;;8.25;;
73158;SDS011;61370;48.594;10.202;2022-08-30T02:48:39;12.77;;;7.97;;
73158;SDS011;61370;48.594;10.202;2022-08-30T02:51:06;11.55;;;7.30;;
73158;SDS011;61370;48.594;10.202;2022-08-30T02:53:35;11.43;;;7.72;;
73158;SDS011;61370;48.594;10.202;2022-08-30T02:56:01;11.82;;;7.72;;
73158;SDS011;61370;48.594;10.202;2022-08-30T02:58:28;12.23;;;7.60;;
73158;SDS011;61370;48.594;10.202;2022-08-30T03:00:55;10.57;;;7.65;;
73158;SDS011;61370;48.594;10.202;2022-08-30T03:03:21;12.20;;;7.93;;
73158;SDS011;61370;48.594;10.202;2022-08-30T03:05:48;10.85;;;7.72;;
73158;SDS011;61370;48.594;10.202;2022-08-30T03:08:14;11.48;;;7.53;;
73158;SDS011;61370;48.594;10.202;2022-08-30T03:10:41;12.20;;;7.40;;
73158;SDS011;61370;48.594;10.202;2022-08-30T03:13:07;12.93;;;8.00;;
73158;SDS011;61370;48.594;10.202;2022-08-30T03:15:34;12.52;;;7.70;;
73158;SDS011;61370;48.594;10.202;2022-08-30T03:18:02;9.95;;;7.13;;
73158;SDS011;61370;48.594;10.202;2022-08-30T03:20:29;12.48;;;7.63;;
73158;SDS011;61370;48.594;10.202;2022-08-30T03:22:55;10.82;;;7.20;;
73158;SDS011;61370;48.594;10.202;2022-08-30T03:25:22;11.15;;;6.95;;
73158;SDS011;61370;48.594;10.202;2022-08-30T03:27:49;14.77;;;7.15;;
73158;SDS011;61370;48.594;10.202;2022-08-30T03:30:16;13.10;;;8.30;;
73158;SDS011;61370;48.594;10.202;2022-08-30T03:32:43;11.75;;;7.93;;
73158;SDS011;61370;48.594;10.202;2022-08-30T03:35:10;11.77;;;7.30;;
73158;SDS011;61370;48.594;10.202;2022-08-30T03:37:37;11.18;;;7.00;;
73158;SDS011;61370;48.594;10.202;2022-08-30T03:40:04;12.77;;;7.70;;
73158;SDS011;61370;48.594;10.202;2022-08-30T03:42:32;12.00;;;6.95;;
73158;SDS011;61370;48.594;10.202;2022-08-30T03:44:58;10.65;;;7.18;;
73158;SDS011;61370;48.594;10.202;2022-08-30T03:47:27;10.57;;;7.50;;
73158;SDS011;61370;48.594;10.202;2022-08-30T03:49:54;12.60;;;7.53;;
73158;SDS011;61370;48.594;10.202;2022-08-30T03:52:21;11.30;;;7.82;;
73158;SDS011;61370;48.594;10.202;2022-08-30T03:54:47;11.95;;;7.55;;
73158;SDS011;61370;48.594;10.202;2022-08-30T03:57:14;12.20;;;7.43;;
73158;SDS011;61370;48.594;10.202;2022-08-30T03:59:40;9.27;;;7.03;;
73158;SDS011;61370;48.594;10.202;2022-08-30T04:02:07;11.00;;;8.27;;
73158;SDS011;61370;48.594;10.202;2022-08-30T04:04:33;10.55;;;7.32;;
73158;SDS011;61370;48.594;10.202;2022-08-30T04:07:00;10.38;;;7.35;;
73158;SDS011;61370;48.594;10.202;2022-08-30T04:09:26;12.15;;;7.35;;
73158;SDS011;61370;48.594;10.202;2022-08-30T04:11:53;13.25;;;7.68;;
73158;SDS011;61370;48.594;10.202;2022-08-30T04:14:19;11.73;;;7.38;;
73158;SDS011;61370;48.594;10.202;2022-08-30T04:16:48;13.30;;;7.18;;
73158;SDS011;61370;48.594;10.202;2022-08-30T04:19:14;12.80;;;7.50;;
73158;SDS011;61370;48.594;10.202;2022-08-30T04:21:41;11.00;;;7.05;;
73158;SDS011;61370;48.594;10.202;2022-08-30T04:24:08;11.30;;;6.97;;
73158;SDS011;61370;48.594;10.202;2022-08-30T04:26:36;11.38;;;7.10;;
73158;SDS011;61370;48.594;10.202;2022-08-30T04:29:02;13.07;;;8.18;;
73158;SDS011;61370;48.594;10.202;2022-08-30T04:31:29;11.77;;;7.65;;
73158;SDS011;61370;48.594;10.202;2022-08-30T04:33:56;11.55;;;7.28;;
73158;SDS011;61370;48.594;10.202;2022-08-30T04:36:22;11.63;;;7.82;;
73158;SDS011;61370;48.594;10.202;2022-08-30T04:38:49;13.00;;;8.13;;
73158;SDS011;61370;48.594;10.202;2022-08-30T04:41:16;13.30;;;7.45;;
73158;SDS011;61370;48.594;10.202;2022-08-30T04:43:44;12.20;;;7.10;;
73158;SDS011;61370;48.594;10.202;2022-08-30T04:46:12;14.15;;;8.27;;
73158;SDS011;61370;48.594;10.202;2022-08-30T04:48:39;11.45;;;7.90;;
73158;SDS011;61370;48.594;10.202;2022-08-30T04:51:06;12.20;;;7.40;;
73158;SDS011;61370;48.594;10.202;2022-08-30T04:53:34;13.20;;;7.75;;
73158;SDS011;61370;48.594;10.202;2022-08-30T04:56:05;11.63;;;8.00;;
73158;SDS011;61370;48.594;10.202;2022-08-30T04:58:36;10.30;;;6.95;;
73158;SDS011;61370;48.594;10.202;2022-08-30T05:01:03;11.10;;;6.50;;
73158;SDS011;61370;48.594;10.202;2022-08-30T05:03:29;10.43;;;6.88;;
73158;SDS011;61370;48.594;10.202;2022-08-30T05:05:56;9.52;;;6.90;;
73158;SDS011;61370;48.594;10.202;2022-08-30T05:08:22;10.63;;;7.00;;
73158;SDS011;61370;48.594;10.202;2022-08-30T05:10:49;9.38;;;6.40;;
73158;SDS011;61370;48.594;10.202;2022-08-30T05:13:17;11.40;;;6.55;;
73158;SDS011;61370;48.594;10.202;2022-08-30T05:15:45;12.98;;;7.07;;
73158;SDS011;61370;48.594;10.202;2022-08-30T05:18:12;9.63;;;6.15;;
73158;SDS011;61370;48.594;10.202;2022-08-30T05:20:41;10.30;;;6.18;;
73158;SDS011;61370;48.594;10.202;2022-08-30T05:23:07;9.43;;;5.65;;
73158;SDS011;61370;48.594;10.202;2022-08-30T05:25:36;10.13;;;6.55;;
73158;SDS011;61370;48.594;10.202;2022-08-30T05:32:58;11.95;;;5.65;;
73158;SDS011;61370;48.594;10.202;2022-08-30T05:35:25;8.07;;;5.95;;
73158;SDS011;61370;48.594;10.202;2022-08-30T05:37:54;10.77;;;5.82;;
73158;SDS011;61370;48.594;10.202;2022-08-30T05:40:21;10.27;;;5.93;;
73158;SDS011;61370;48.594;10.202;2022-08-30T05:42:52;10.60;;;5.20;;
73158;SDS011;61370;48.594;10.202;2022-08-30T05:45:22;11.48;;;5.95;;
73158;SDS011;61370;48.594;10.202;2022-08-30T05:47:49;9.23;;;6.10;;
73158;SDS011;61370;48.594;10.202;2022-08-30T05:50:16;13.45;;;6.03;;
73158;SDS011;61370;48.594;10.202;2022-08-30T05:52:45;10.70;;;6.85;;
73158;SDS011;61370;48.594;10.202;2022-08-30T05:55:11;8.45;;;5.22;;
73158;SDS011;61370;48.594;10.202;2022-08-30T05:57:40;11.30;;;6.47;;
73158;SDS011;61370;48.594;10.202;2022-08-30T06:00:08;10.23;;;6.07;;
73158;SDS011;61370;48.594;10.202;2022-08-30T06:02:40;8.43;;;6.20;;
73158;SDS011;61370;48.594;10.202;2022-08-30T06:05:07;11.82;;;6.55;;
73158;SDS011;61370;48.594;10.202;2022-08-30T06:07:34;10.02;;;6.05;;
73158;SDS011;61370;48.594;10.202;2022-08-30T06:10:01;11.57;;;6.05;;
73158;SDS011;61370;48.594;10.202;2022-08-30T06:12:29;9.40;;;5.88;;
73158;SDS011;61370;48.594;10.202;2022-08-30T06:14:55;9.07;;;5.60;;
73158;SDS011;61370;48.594;10.202;2022-08-30T06:17:22;7.75;;;5.68;;
73158;SDS011;61370;48.594;10.202;2022-08-30T06:19:49;8.43;;;5.80;;
73158;SDS011;61370;48.594;10.202;2022-08-30T06:22:15;8.02;;;6.10;;
73158;SDS011;61370;48.594;10.202;2022-08-30T06:24:41;8.93;;;5.65;;
73158;SDS011;61370;48.594;10.202;2022-08-30T06:27:08;10.85;;;6.15;;
73158;SDS011;61370;48.594;10.202;2022-08-30T06:29:36;9.15;;;6.03;;
73158;SDS011;61370;48.594;10.202;2022-08-30T06:32:02;10.02;;;6.53;;
73158;SDS011;61370;48.594;10.202;2022-08-30T06:34:29;8.02;;;5.57;;
73158;SDS011;61370;48.594;10.202;2022-08-30T06:36:56;10.23;;;6.60;;
73158;SDS011;61370;48.594;10.202;2022-08-30T06:39:23;10.40;;;6.05;;
73158;SDS011;61370;48.594;10.202;2022-08-30T06:41:49;10.75;;;6.28;;
73158;SDS011;61370;48.594;10.202;2022-08-30T06:44:31;11.70;;;6.03;;
73158;SDS011;61370;48.594;10.202;2022-08-30T06:46:59;11.00;;;6.53;;
73158;SDS011;61370;48.594;10.202;2022-08-30T06:49:25;9.85;;;6.13;;
73158;SDS011;61370;48.594;10.202;2022-08-30T06:51:52;11.48;;;6.15;;
73158;SDS011;61370;48.594;10.202;2022-08-30T06:54:19;9.50;;;6.32;;
73158;SDS011;61370;48.594;10.202;2022-08-30T06:56:45;11.55;;;6.30;;
73158;SDS011;61370;48.594;10.202;2022-08-30T06:59:12;11.93;;;6.78;;
73158;SDS011;61370;48.594;10.202;2022-08-30T07:01:38;9.90;;;6.45;;
73158;SDS011;61370;48.594;10.202;2022-08-30T07:04:05;11.15;;;7.78;;
73158;SDS011;61370;48.594;10.202;2022-08-30T07:06:31;11.82;;;7.10;;
73158;SDS011;61370;48.594;10.202;2022-08-30T07:08:58;10.52;;;7.25;;
73158;SDS011;61370;48.594;10.202;2022-08-30T07:11:26;9.15;;;6.28;;
73158;SDS011;61370;48.594;10.202;2022-08-30T07:13:57;10.30;;;6.75;;
73158;SDS011;61370;48.594;10.202;2022-08-30T07:16:25;10.35;;;7.10;;
73158;SDS011;61370;48.594;10.202;2022-08-30T07:18:52;10.25;;;7.03;;
73158;SDS011;61370;48.594;10.202;2022-08-30T07:21:26;8.98;;;7.15;;
73158;SDS011;61370;48.594;10.202;2022-08-30T07:23:55;10.68;;;7.45;;
73158;SDS011;61370;48.594;10.202;2022-08-30T07:26:42;10.85;;;7.18;;
73158;SDS011;61370;48.594;10.202;2022-08-30T07:29:16;9.57;;;7.00;;
73158;SDS011;61370;48.594;10.202;2022-08-30T07:31:44;11.82;;;7.65;;
73158;SDS011;61370;48.594;10.202;2022-08-30T07:34:12;10.38;;;7.13;;
73158;SDS011;61370;48.594;10.202;2022-08-30T07:36:38;9.80;;;7.50;;
73158;SDS011;61370;48.594;10.202;2022-08-30T07:39:05;9.65;;;7.57;;
73158;SDS011;61370;48.594;10.202;2022-08-30T07:41:33;10.57;;;7.40;;
73158;SDS011;61370;48.594;10.202;2022-08-30T07:44:04;14.10;;;7.88;;
73158;SDS011;61370;48.594;10.202;2022-08-30T07:46:31;10.18;;;7.45;;
73158;SDS011;61370;48.594;10.202;2022-08-30T07:48:59;15.43;;;8.10;;
73158;SDS011;61370;48.594;10.202;2022-08-30T07:51:25;10.73;;;7.95;;
73158;SDS011;61370;48.594;10.202;2022-08-30T07:53:53;12.32;;;7.63;;
73158;SDS011;61370;48.594;10.202;2022-08-30T07:56:21;13.40;;;7.82;;
73158;SDS011;61370;48.594;10.202;2022-08-30T07:58:47;8.55;;;7.15;;
73158;SDS011;61370;48.594;10.202;2022-08-30T08:01:14;12.40;;;7.57;;
73158;SDS011;61370;48.594;10.202;2022-08-30T08:03:42;10.73;;;8.15;;
73158;SDS011;61370;48.594;10.202;2022-08-30T08:06:10;9.77;;;7.50;;
73158;SDS011;61370;48.594;10.202;2022-08-30T08:08:38;11.45;;;8.48;;
73158;SDS011;61370;48.594;10.202;2022-08-30T08:11:06;10.18;;;8.20;;
73158;SDS011;61370;48.594;10.202;2022-08-30T08:13:40;12.07;;;8.70;;
73158;SDS011;61370;48.594;10.202;2022-08-30T08:16:07;11.02;;;8.50;;
73158;SDS011;61370;48.594;10.202;2022-08-30T08:18:33;11.65;;;9.10;;
73158;SDS011;61370;48.594;10.202;2022-08-30T08:21:00;11.00;;;8.32;;
73158;SDS011;61370;48.594;10.202;2022-08-30T08:23:27;12.13;;;8.63;;
73158;SDS011;61370;48.594;10.202;2022-08-30T08:25:54;10.15;;;7.85;;
73158;SDS011;61370;48.594;10.202;2022-08-30T08:28:23;11.65;;;8.60;;
73158;SDS011;61370;48.594;10.202;2022-08-30T08:30:50;9.75;;;8.32;;
73158;SDS011;61370;48.594;10.202;2022-08-30T08:33:16;11.13;;;8.75;;
73158;SDS011;61370;48.594;10.202;2022-08-30T08:35:44;12.13;;;9.20;;
73158;SDS011;61370;48.594;10.202;2022-08-30T08:41:13;10.90;;;7.97;;
73158;SDS011;61370;48.594;10.202;2022-08-30T08:43:45;10.30;;;8.23;;
73158;SDS011;61370;48.594;10.202;2022-08-30T08:48:51;10.70;;;8.55;;
73158;SDS011;61370;48.594;10.202;2022-08-30T08:51:22;10.07;;;8.25;;
73158;SDS011;61370;48.594;10.202;2022-08-30T08:54:11;9.18;;;8.13;;
73158;SDS011;61370;48.594;10.202;2022-08-30T08:56:40;13.77;;;8.43;;
73158;SDS011;61370;48.594;10.202;2022-08-30T08:59:08;11.07;;;7.60;;
73158;SDS011;61370;48.594;10.202;2022-08-30T09:01:36;10.50;;;8.15;;
73158;SDS011;61370;48.594;10.202;2022-08-30T09:04:07;9.80;;;7.80;;
73158;SDS011;61370;48.594;10.202;2022-08-30T09:09:25;10.05;;;7.40;;
73158;SDS011;61370;48.594;10.202;2022-08-30T09:11:55;11.13;;;6.72;;
73158;SDS011;61370;48.594;10.202;2022-08-30T09:14:25;10.20;;;7.53;;
73158;SDS011;61370;48.594;10.202;2022-08-30T09:17:09;9.55;;;7.20;;
73158;SDS011;61370;48.594;10.202;2022-08-30T09:19:42;10.85;;;7.18;;
73158;SDS011;61370;48.594;10.202;2022-08-30T09:24:49;9.27;;;6.28;;
73158;SDS011;61370;48.594;10.202;2022-08-30T09:27:21;8.95;;;6.30;;
73158;SDS011;61370;48.594;10.202;2022-08-30T09:29:59;8.18;;;5.78;;
73158;SDS011;61370;48.594;10.202;2022-08-30T09:32:30;12.18;;;6.45;;
73158;SDS011;61370;48.594;10.202;2022-08-30T09:34:59;9.40;;;6.00;;
73158;SDS011;61370;48.594;10.202;2022-08-30T09:39:55;9.68;;;6.40;;
73158;SDS011;61370;48.594;10.202;2022-08-30T09:42:24;8.88;;;6.47;;
73158;SDS011;61370;48.594;10.202;2022-08-30T09:44:54;9.32;;;5.88;;
73158;SDS011;61370;48.594;10.202;2022-08-30T09:47:37;9.20;;;6.18;;
73158;SDS011;61370;48.594;10.202;2022-08-30T09:50:07;8.65;;;5.97;;
73158;SDS011;61370;48.594;10.202;2022-08-30T10:00:22;9.48;;;6.13;;
73158;SDS011;61370;48.594;10.202;2022-08-30T10:05:55;7.63;;;5.80;;
73158;SDS011;61370;48.594;10.202;2022-08-30T10:08:28;7.82;;;6.00;;
73158;SDS011;61370;48.594;10.202;2022-08-30T10:13:31;8.85;;;5.78;;
73158;SDS011;61370;48.594;10.202;2022-08-30T10:16:19;7.93;;;6.10;;
73158;SDS011;61370;48.594;10.202;2022-08-30T10:18:53;6.78;;;5.03;;
73158;SDS011;61370;48.594;10.202;2022-08-30T10:24:38;10.25;;;4.95;;
73158;SDS011;61370;48.594;10.202;2022-08-30T10:27:12;7.65;;;4.82;;
73158;SDS011;61370;48.594;10.202;2022-08-30T10:29:46;9.77;;;5.63;;
73158;SDS011;61370;48.594;10.202;2022-08-30T10:32:35;7.47;;;5.22;;
73158;SDS011;61370;48.594;10.202;2022-08-30T10:35:09;6.22;;;4.53;;
73158;SDS011;61370;48.594;10.202;2022-08-30T10:38:00;8.02;;;5.65;;
73158;SDS011;61370;48.594;10.202;2022-08-30T10:40:30;7.85;;;5.35;;
73158;SDS011;61370;48.594;10.202;2022-08-30T10:43:25;6.95;;;4.85;;
73158;SDS011;61370;48.594;10.202;2022-08-30T10:46:18;7.70;;;5.50;;
73158;SDS011;61370;48.594;10.202;2022-08-30T10:49:09;8.75;;;5.55;;
73158;SDS011;61370;48.594;10.202;2022-08-30T10:57:16;7.82;;;5.18;;
73158;SDS011;61370;48.594;10.202;2022-08-30T10:59:50;7.22;;;5.38;;
73158;SDS011;61370;48.594;10.202;2022-08-30T11:02:38;9.73;;;5.40;;
73158;SDS011;61370;48.594;10.202;2022-08-30T11:14:37;8.27;;;5.45;;
73158;SDS011;61370;48.594;10.202;2022-08-30T11:17:07;6.35;;;4.47;;
73158;SDS011;61370;48.594;10.202;2022-08-30T11:19:50;6.85;;;5.25;;
73158;SDS011;61370;48.594;10.202;2022-08-30T11:27:38;9.82;;;4.90;;
73158;SDS011;61370;48.594;10.202;2022-08-30T11:40:46;6.05;;;4.50;;
73158;SDS011;61370;48.594;10.202;2022-08-30T11:46:33;6.38;;;4.75;;
73158;SDS011;61370;48.594;10.202;2022-08-30T11:48:57;6.78;;;4.57;;
73158;SDS011;61370;48.594;10.202;2022-08-30T11:51:32;8.60;;;4.70;;
73158;SDS011;61370;48.594;10.202;2022-08-30T11:56:55;6.53;;;4.68;;
73158;SDS011;61370;48.594;10.202;2022-08-30T12:08:07;7.60;;;4.40;;
73158;SDS011;61370;48.594;10.202;2022-08-30T12:18:58;6.93;;;5.00;;
73158;SDS011;61370;48.594;10.202;2022-08-30T12:21:35;8.23;;;4.65;;
73158;SDS011;61370;48.594;10.202;2022-08-30T12:24:04;6.47;;;4.50;;
73158;SDS011;61370;48.594;10.202;2022-08-30T12:26:36;5.65;;;4.50;;
73158;SDS011;61370;48.594;10.202;2022-08-30T12:29:21;6.20;;;4.45;;
73158;SDS011;61370;48.594;10.202;2022-08-30T12:32:02;13.25;;;4.97;;
73158;SDS011;61370;48.594;10.202;2022-08-30T12:40:01;6.07;;;4.05;;
73158;SDS011;61370;48.594;10.202;2022-08-30T12:42:38;7.07;;;4.40;;
73158;SDS011;61370;48.594;10.202;2022-08-30T12:45:11;6.45;;;4.60;;
73158;SDS011;61370;48.594;10.202;2022-08-30T12:50:10;7.13;;;4.95;;
73158;SDS011;61370;48.594;10.202;2022-08-30T12:52:40;6.32;;;4.63;;
73158;SDS011;61370;48.594;10.202;2022-08-30T13:00:22;6.18;;;4.80;;
73158;SDS011;61370;48.594;10.202;2022-08-30T13:02:52;5.53;;;4.20;;
73158;SDS011;61370;48.594;10.202;2022-08-30T13:05:31;7.65;;;5.25;;
73158;SDS011;61370;48.594;10.202;2022-08-30T13:10:57;5.65;;;4.25;;
73158;SDS011;61370;48.594;10.202;2022-08-30T13:13:42;5.82;;;4.07;;
73158;SDS011;61370;48.594;10.202;2022-08-30T13:18:37;7.18;;;4.53;;
73158;SDS011;61370;48.594;10.202;2022-08-30T13:21:11;5.65;;;4.25;;
73158;SDS011;61370;48.594;10.202;2022-08-30T13:23:46;6.80;;;4.25;;
73158;SDS011;61370;48.594;10.202;2022-08-30T13:26:16;6.35;;;4.25;;
73158;SDS011;61370;48.594;10.202;2022-08-30T13:28:48;6.88;;;4.40;;
73158;SDS011;61370;48.594;10.202;2022-08-30T13:31:17;6.65;;;4.43;;
73158;SDS011;61370;48.594;10.202;2022-08-30T13:33:44;6.35;;;4.28;;
73158;SDS011;61370;48.594;10.202;2022-08-30T13:36:12;7.20;;;3.85;;
73158;SDS011;61370;48.594;10.202;2022-08-30T13:38:39;6.40;;;4.30;;
73158;SDS011;61370;48.594;10.202;2022-08-30T13:41:09;5.80;;;4.57;;
73158;SDS011;61370;48.594;10.202;2022-08-30T13:43:36;7.78;;;3.90;;
73158;SDS011;61370;48.594;10.202;2022-08-30T13:46:04;7.05;;;4.22;;
73158;SDS011;61370;48.594;10.202;2022-08-30T13:48:31;6.15;;;4.22;;
73158;SDS011;61370;48.594;10.202;2022-08-30T13:50:57;6.47;;;4.50;;
73158;SDS011;61370;48.594;10.202;2022-08-30T13:53:24;6.95;;;4.43;;
73158;SDS011;61370;48.594;10.202;2022-08-30T13:55:51;6.50;;;4.97;;
73158;SDS011;61370;48.594;10.202;2022-08-30T13:58:17;6.60;;;4.13;;
73158;SDS011;61370;48.594;10.202;2022-08-30T14:00:44;6.72;;;4.55;;
73158;SDS011;61370;48.594;10.202;2022-08-30T14:03:11;6.05;;;3.95;;
73158;SDS011;61370;48.594;10.202;2022-08-30T14:05:40;7.40;;;4.75;;
73158;SDS011;61370;48.594;10.202;2022-08-30T14:08:07;7.45;;;4.72;;
73158;SDS011;61370;48.594;10.202;2022-08-30T14:10:35;6.22;;;4.07;;
73158;SDS011;61370;48.594;10.202;2022-08-30T14:13:02;5.65;;;4.10;;
73158;SDS011;61370;48.594;10.202;2022-08-30T14:15:31;7.10;;;4.40;;
73158;SDS011;61370;48.594;10.202;2022-08-30T14:17:58;7.72;;;4.47;;
73158;SDS011;61370;48.594;10.202;2022-08-30T14:20:25;6.00;;;4.25;;
73158;SDS011;61370;48.594;10.202;2022-08-30T14:22:51;8.48;;;4.55;;
73158;SDS011;61370;48.594;10.202;2022-08-30T14:25:18;6.35;;;4.30;;
73158;SDS011;61370;48.594;10.202;2022-08-30T14:27:44;8.57;;;4.72;;
73158;SDS011;61370;48.594;10.202;2022-08-30T14:30:11;8.25;;;4.80;;
73158;SDS011;61370;48.594;10.202;2022-08-30T14:32:37;5.70;;;4.25;;
73158;SDS011;61370;48.594;10.202;2022-08-30T14:35:04;5.00;;;3.75;;
73158;SDS011;61370;48.594;10.202;2022-08-30T14:37:31;10.02;;;4.47;;
73158;SDS011;61370;48.594;10.202;2022-08-30T14:39:57;7.32;;;4.32;;
73158;SDS011;61370;48.594;10.202;2022-08-30T14:42:25;6.03;;;3.92;;
73158;SDS011;61370;48.594;10.202;2022-08-30T14:44:51;6.28;;;4.07;;
73158;SDS011;61370;48.594;10.202;2022-08-30T14:47:18;5.45;;;4.13;;
73158;SDS011;61370;48.594;10.202;2022-08-30T14:49:44;7.55;;;4.43;;
73158;SDS011;61370;48.594;10.202;2022-08-30T14:52:11;5.80;;;3.92;;
73158;SDS011;61370;48.594;10.202;2022-08-30T14:54:37;7.65;;;3.80;;
73158;SDS011;61370;48.594;10.202;2022-08-30T14:57:04;8.65;;;4.40;;
73158;SDS011;61370;48.594;10.202;2022-08-30T14:59:30;5.72;;;4.00;;
73158;SDS011;61370;48.594;10.202;2022-08-30T15:01:57;4.90;;;3.83;;
73158;SDS011;61370;48.594;10.202;2022-08-30T15:04:24;6.78;;;3.95;;
73158;SDS011;61370;48.594;10.202;2022-08-30T15:06:50;7.15;;;4.35;;
73158;SDS011;61370;48.594;10.202;2022-08-30T15:09:21;6.85;;;3.95;;
73158;SDS011;61370;48.594;10.202;2022-08-30T15:11:48;4.88;;;3.25;;
73158;SDS011;61370;48.594;10.202;2022-08-30T15:14:15;5.72;;;3.95;;
73158;SDS011;61370;48.594;10.202;2022-08-30T15:16:41;5.22;;;3.90;;
73158;SDS011;61370;48.594;10.202;2022-08-30T15:19:09;6.57;;;3.83;;
73158;SDS011;61370;48.594;10.202;2022-08-30T15:21:40;5.95;;;3.78;;
73158;SDS011;61370;48.594;10.202;2022-08-30T15:24:10;8.32;;;4.18;;
73158;SDS011;61370;48.594;10.202;2022-08-30T15:26:39;7.95;;;4.25;;
73158;SDS011;61370;48.594;10.202;2022-08-30T15:29:09;7.82;;;4.18;;
73158;SDS011;61370;48.594;10.202;2022-08-30T15:31:36;6.55;;;4.07;;
73158;SDS011;61370;48.594;10.202;2022-08-30T15:34:06;6.47;;;4.28;;
73158;SDS011;61370;48.594;10.202;2022-08-30T15:36:33;5.85;;;4.18;;
73158;SDS011;61370;48.594;10.202;2022-08-30T15:39:00;5.30;;;3.67;;
73158;SDS011;61370;48.594;10.202;2022-08-30T15:41:26;5.90;;;4.15;;
73158;SDS011;61370;48.594;10.202;2022-08-30T15:43:54;7.00;;;4.18;;
73158;SDS011;61370;48.594;10.202;2022-08-30T15:46:23;6.38;;;4.22;;
73158;SDS011;61370;48.594;10.202;2022-08-30T15:48:51;6.93;;;4.25;;
73158;SDS011;61370;48.594;10.202;2022-08-30T15:51:23;6.60;;;3.65;;
73158;SDS011;61370;48.594;10.202;2022-08-30T15:53:50;6.25;;;4.43;;
73158;SDS011;61370;48.594;10.202;2022-08-30T15:56:17;7.85;;;4.60;;
73158;SDS011;61370;48.594;10.202;2022-08-30T15:58:44;6.70;;;4.40;;
73158;SDS011;61370;48.594;10.202;2022-08-30T16:01:11;11.23;;;5.00;;
73158;SDS011;61370;48.594;10.202;2022-08-30T16:03:38;6.70;;;3.95;;
73158;SDS011;61370;48.594;10.202;2022-08-30T16:06:11;7.45;;;4.43;;
73158;SDS011;61370;48.594;10.202;2022-08-30T16:08:38;6.28;;;3.83;;
73158;SDS011;61370;48.594;10.202;2022-08-30T16:11:06;7.55;;;4.47;;
73158;SDS011;61370;48.594;10.202;2022-08-30T16:13:34;11.70;;;4.63;;
73158;SDS011;61370;48.594;10.202;2022-08-30T16:16:01;6.68;;;4.53;;
73158;SDS011;61370;48.594;10.202;2022-08-30T16:18:29;7.53;;;4.95;;
73158;SDS011;61370;48.594;10.202;2022-08-30T16:23:34;6.28;;;4.70;;
73158;SDS011;61370;48.594;10.202;2022-08-30T16:26:02;7.97;;;4.40;;
73158;SDS011;61370;48.594;10.202;2022-08-30T16:28:29;10.48;;;4.20;;
73158;SDS011;61370;48.594;10.202;2022-08-30T16:30:56;9.70;;;5.00;;
73158;SDS011;61370;48.594;10.202;2022-08-30T16:33:22;7.28;;;4.78;;